sensor_id;sensor_type;location;lat;lon;timestamp;pressure;altitude;pressure_sealevel;temperature;humidity
39341;BME280;25059;52.132;21.062;2023-02-10T08:42:33;101745.09;;;1.88;100.00
39341;BME280;25059;52.132;21.062;2023-02-10T08:45:25;101749.66;;;1.56;100.00
39341;BME280;25059;52.132;21.062;2023-02-10T08:48:09;101744.97;;;1.38;100.00
39341;BME280;25059;52.132;21.062;2023-02-10T08:50:56;101753.25;;;1.22;100.00
39341;BME280;25059;52.132;21.062;2023-02-10T08:53:41;101769.56;;;1.18;100.00
39341;BME280;25059;52.132;21.062;2023-02-10T08:56:29;101782.38;;;1.12;100.00
39341;BME280;25059;52.132;21.062;2023-02-10T08:59:15;101779.31;;;0.90;100.00
39341;BME280;25059;52.132;21.062;2023-02-10T09:02:06;101777.56;;;0.89;100.00
39341;BME280;25059;52.132;21.062;2023-02-10T09:04:51;101767.50;;;1.03;100.00
39341;BME280;25059;52.132;21.062;2023-02-10T09:07:36;101770.34;;;1.14;100.00
39341;BME280;25059;52.132;21.062;2023-02-10T09:10:21;101783.44;;;1.20;100.00
39341;BME280;25059;52.132;21.062;2023-02-10T09:13:06;101796.41;;;1.21;100.00
39341;BME280;25059;52.132;21.062;2023-02-10T09:15:52;101800.56;;;1.15;100.00
39341;BME280;25059;52.132;21.062;2023-02-10T09:18:38;101808.44;;;1.19;100.00
39341;BME280;25059;52.132;21.062;2023-02-10T09:21:22;101806.88;;;1.26;100.00
39341;BME280;25059;52.132;21.062;2023-02-10T09:24:16;101805.38;;;1.36;100.00
39341;BME280;25059;52.132;21.062;2023-02-10T09:27:04;101817.16;;;1.23;100.00
39341;BME280;25059;52.132;21.062;2023-02-10T09:29:51;101811.03;;;1.19;100.00
39341;BME280;25059;52.132;21.062;2023-02-10T09:32:42;101819.69;;;1.20;100.00
39341;BME280;25059;52.132;21.062;2023-02-10T09:35:29;101816.50;;;1.32;100.00
39341;BME280;25059;52.132;21.062;2023-02-10T09:38:19;101820.91;;;1.36;100.00
39341;BME280;25059;52.132;21.062;2023-02-10T09:41:19;101825.97;;;1.31;100.00
39341;BME280;25059;52.132;21.062;2023-02-10T09:47:10;101832.16;;;1.36;100.00
39341;BME280;25059;52.132;21.062;2023-02-10T09:53:19;101829.63;;;1.39;100.00
39341;BME280;25059;52.132;21.062;2023-02-10T09:56:11;101821.97;;;1.45;100.00
39341;BME280;25059;52.132;21.062;2023-02-10T09:58:59;101832.22;;;1.39;100.00
39341;BME280;25059;52.132;21.062;2023-02-10T10:01:49;101828.97;;;1.49;100.00
39341;BME280;25059;52.132;21.062;2023-02-10T10:04:38;101831.75;;;1.57;100.00
39341;BME280;25059;52.132;21.062;2023-02-10T10:07:31;101821.16;;;1.46;100.00
39341;BME280;25059;52.132;21.062;2023-02-10T10:10:27;101826.53;;;1.55;100.00
39341;BME280;25059;52.132;21.062;2023-02-10T10:13:22;101812.50;;;1.46;100.00
39341;BME280;25059;52.132;21.062;2023-02-10T10:16:46;101807.94;;;1.36;100.00
39341;BME280;25059;52.132;21.062;2023-02-10T10:20:02;101798.41;;;1.33;100.00
39341;BME280;25059;52.132;21.062;2023-02-10T10:23:15;101803.69;;;1.38;100.00
39341;BME280;25059;52.132;21.062;2023-02-10T10:34:57;101805.91;;;1.61;100.00
39341;BME280;25059;52.132;21.062;2023-02-10T10:37:45;101803.94;;;1.50;100.00
39341;BME280;25059;52.132;21.062;2023-02-10T10:40:32;101829.06;;;1.52;100.00
39341;BME280;25059;52.132;21.062;2023-02-10T10:43:25;101809.31;;;1.59;100.00
39341;BME280;25059;52.132;21.062;2023-02-10T10:49:07;101825.75;;;1.59;100.00
39341;BME280;25059;52.132;21.062;2023-02-10T10:51:51;101810.81;;;1.48;100.00
39341;BME280;25059;52.132;21.062;2023-02-10T10:54:37;101808.31;;;1.52;100.00
39341;BME280;25059;52.132;21.062;2023-02-10T10:57:27;101816.75;;;1.42;100.00
39341;BME280;25059;52.132;21.062;2023-02-10T11:00:18;101807.13;;;1.37;100.00
39341;BME280;25059;52.132;21.062;2023-02-10T11:03:15;101807.31;;;1.46;100.00
39341;BME280;25059;52.132;21.062;2023-02-10T11:06:03;101819.31;;;1.42;100.00
39341;BME280;25059;52.132;21.062;2023-02-10T11:08:58;101827.72;;;1.32;100.00
39341;BME280;25059;52.132;21.062;2023-02-10T11:11:44;101813.84;;;1.28;100.00
39341;BME280;25059;52.132;21.062;2023-02-10T11:14:35;101832.03;;;1.32;100.00
39341;BME280;25059;52.132;21.062;2023-02-10T11:17:33;101820.84;;;1.33;100.00
39341;BME280;25059;52.132;21.062;2023-02-10T11:20:29;101812.28;;;1.37;100.00
39341;BME280;25059;52.132;21.062;2023-02-10T11:23:15;101827.97;;;1.43;100.00
39341;BME280;25059;52.132;21.062;2023-02-10T11:26:04;101842.66;;;1.42;100.00
39341;BME280;25059;52.132;21.062;2023-02-10T11:28:53;101814.88;;;1.37;100.00
39341;BME280;25059;52.132;21.062;2023-02-10T11:31:41;101828.72;;;1.37;100.00
39341;BME280;25059;52.132;21.062;2023-02-10T11:34:30;101814.84;;;1.35;100.00
39341;BME280;25059;52.132;21.062;2023-02-10T11:37:21;101825.34;;;1.41;100.00
39341;BME280;25059;52.132;21.062;2023-02-10T11:40:24;101834.94;;;1.45;100.00
39341;BME280;25059;52.132;21.062;2023-02-10T11:43:13;101858.25;;;1.45;100.00
39341;BME280;25059;52.132;21.062;2023-02-10T11:46:00;101852.25;;;1.46;100.00
39341;BME280;25059;52.132;21.062;2023-02-10T11:48:56;101856.38;;;1.38;100.00
39341;BME280;25059;52.132;21.062;2023-02-10T11:52:01;101875.44;;;1.42;100.00
39341;BME280;25059;52.132;21.062;2023-02-10T11:54:56;101856.75;;;1.55;100.00
39341;BME280;25059;52.132;21.062;2023-02-10T12:01:08;101859.47;;;2.02;100.00
39341;BME280;25059;52.132;21.062;2023-02-10T12:07:50;101847.84;;;2.26;100.00
39341;BME280;25059;52.132;21.062;2023-02-10T12:10:53;101853.97;;;2.30;100.00
39341;BME280;25059;52.132;21.062;2023-02-10T12:26:47;101857.38;;;1.84;100.00
39341;BME280;25059;52.132;21.062;2023-02-10T12:35:52;101851.84;;;1.67;100.00
39341;BME280;25059;52.132;21.062;2023-02-10T12:42:05;101848.59;;;1.77;100.00
39341;BME280;25059;52.132;21.062;2023-02-10T12:57:55;101837.66;;;1.92;100.00
39341;BME280;25059;52.132;21.062;2023-02-10T13:00:54;101838.88;;;2.09;100.00
39341;BME280;25059;52.132;21.062;2023-02-10T13:03:46;101836.75;;;1.90;100.00
39341;BME280;25059;52.132;21.062;2023-02-10T13:06:37;101832.63;;;2.00;100.00
39341;BME280;25059;52.132;21.062;2023-02-10T13:09:34;101871.50;;;1.98;100.00
39341;BME280;25059;52.132;21.062;2023-02-10T13:12:27;101849.84;;;1.96;100.00
39341;BME280;25059;52.132;21.062;2023-02-10T13:15:15;101841.13;;;1.92;100.00
39341;BME280;25059;52.132;21.062;2023-02-10T13:18:18;101833.22;;;1.86;100.00
39341;BME280;25059;52.132;21.062;2023-02-10T13:21:11;101850.38;;;1.80;100.00
39341;BME280;25059;52.132;21.062;2023-02-10T13:24:13;101865.03;;;1.78;100.00
39341;BME280;25059;52.132;21.062;2023-02-10T13:27:24;101862.41;;;1.76;100.00
39341;BME280;25059;52.132;21.062;2023-02-10T13:36:35;101851.69;;;1.61;100.00
39341;BME280;25059;52.132;21.062;2023-02-10T13:39:24;101864.63;;;1.59;100.00
39341;BME280;25059;52.132;21.062;2023-02-10T13:42:27;101859.38;;;1.56;100.00
39341;BME280;25059;52.132;21.062;2023-02-10T13:48:03;101858.47;;;1.54;100.00
39341;BME280;25059;52.132;21.062;2023-02-10T13:50:52;101879.13;;;1.51;100.00
39341;BME280;25059;52.132;21.062;2023-02-10T13:53:40;101873.81;;;1.45;100.00
39341;BME280;25059;52.132;21.062;2023-02-10T13:56:31;101866.03;;;1.45;100.00
39341;BME280;25059;52.132;21.062;2023-02-10T14:02:15;101875.44;;;1.42;100.00
39341;BME280;25059;52.132;21.062;2023-02-10T14:05:00;101891.06;;;1.45;100.00
39341;BME280;25059;52.132;21.062;2023-02-10T14:07:44;101883.28;;;1.45;100.00
39341;BME280;25059;52.132;21.062;2023-02-10T14:10:33;101889.28;;;1.42;100.00
39341;BME280;25059;52.132;21.062;2023-02-10T14:13:23;101880.66;;;1.43;100.00
39341;BME280;25059;52.132;21.062;2023-02-10T14:19:02;101888.34;;;1.39;100.00
39341;BME280;25059;52.132;21.062;2023-02-10T14:21:48;101889.09;;;1.35;100.00
39341;BME280;25059;52.132;21.062;2023-02-10T14:24:36;101894.25;;;1.33;100.00
39341;BME280;25059;52.132;21.062;2023-02-10T14:27:23;101915.84;;;1.34;100.00
39341;BME280;25059;52.132;21.062;2023-02-10T14:30:19;101921.78;;;1.29;100.00
39341;BME280;25059;52.132;21.062;2023-02-10T14:33:29;101918.25;;;1.26;100.00
39341;BME280;25059;52.132;21.062;2023-02-10T14:36:17;101927.72;;;1.24;100.00
39341;BME280;25059;52.132;21.062;2023-02-10T14:39:02;101921.53;;;1.19;100.00
39341;BME280;25059;52.132;21.062;2023-02-10T14:41:46;101938.75;;;1.17;100.00
39341;BME280;25059;52.132;21.062;2023-02-10T14:44:40;101924.81;;;1.12;100.00
39341;BME280;25059;52.132;21.062;2023-02-10T14:47:33;101923.06;;;1.11;100.00
39341;BME280;25059;52.132;21.062;2023-02-10T14:50:22;101934.38;;;1.14;100.00
39341;BME280;25059;52.132;21.062;2023-02-10T14:53:16;101936.84;;;1.10;100.00
39341;BME280;25059;52.132;21.062;2023-02-10T14:56:01;101942.91;;;1.10;100.00
39341;BME280;25059;52.132;21.062;2023-02-10T14:58:46;101936.72;;;1.05;100.00
39341;BME280;25059;52.132;21.062;2023-02-10T15:01:34;101933.28;;;1.05;100.00
39341;BME280;25059;52.132;21.062;2023-02-10T15:04:21;101944.53;;;1.07;100.00
39341;BME280;25059;52.132;21.062;2023-02-10T15:07:17;101943.50;;;1.00;100.00
39341;BME280;25059;52.132;21.062;2023-02-10T15:10:24;101948.69;;;1.00;100.00
39341;BME280;25059;52.132;21.062;2023-02-10T15:13:10;101940.91;;;1.00;100.00
39341;BME280;25059;52.132;21.062;2023-02-10T15:15:58;101938.25;;;0.97;100.00
39341;BME280;25059;52.132;21.062;2023-02-10T15:18:46;101936.53;;;0.98;100.00
39341;BME280;25059;52.132;21.062;2023-02-10T15:21:36;101945.22;;;1.00;100.00
39341;BME280;25059;52.132;21.062;2023-02-10T15:24:27;101938.25;;;0.97;100.00
39341;BME280;25059;52.132;21.062;2023-02-10T15:27:16;101943.34;;;0.94;100.00
39341;BME280;25059;52.132;21.062;2023-02-10T15:30:16;101945.97;;;0.95;100.00
39341;BME280;25059;52.132;21.062;2023-02-10T15:33:01;101938.09;;;0.91;100.00
39341;BME280;25059;52.132;21.062;2023-02-10T15:35:54;101946.75;;;0.91;100.00
39341;BME280;25059;52.132;21.062;2023-02-10T15:47:23;101954.53;;;0.93;100.00
39341;BME280;25059;52.132;21.062;2023-02-10T15:50:12;101958.94;;;0.95;100.00
39341;BME280;25059;52.132;21.062;2023-02-10T15:52:58;101962.50;;;1.01;100.00
39341;BME280;25059;52.132;21.062;2023-02-10T15:55:44;101969.28;;;0.95;100.00
39341;BME280;25059;52.132;21.062;2023-02-10T15:58:29;101970.00;;;0.90;100.00
39341;BME280;25059;52.132;21.062;2023-02-10T16:01:13;101984.53;;;0.85;100.00
39341;BME280;25059;52.132;21.062;2023-02-10T16:03:58;101975.88;;;0.84;100.00
39341;BME280;25059;52.132;21.062;2023-02-10T16:06:43;101985.16;;;0.76;100.00
39341;BME280;25059;52.132;21.062;2023-02-10T16:09:30;101982.53;;;0.75;100.00
39341;BME280;25059;52.132;21.062;2023-02-10T16:12:16;101988.44;;;0.71;100.00
39341;BME280;25059;52.132;21.062;2023-02-10T16:15:00;101993.47;;;0.64;100.00
39341;BME280;25059;52.132;21.062;2023-02-10T16:17:49;101990.91;;;0.66;100.00
39341;BME280;25059;52.132;21.062;2023-02-10T16:20:34;101989.16;;;0.65;100.00
39341;BME280;25059;52.132;21.062;2023-02-10T16:23:19;101984.00;;;0.65;100.00
39341;BME280;25059;52.132;21.062;2023-02-10T16:26:04;101984.91;;;0.67;100.00
39341;BME280;25059;52.132;21.062;2023-02-10T16:28:49;101997.81;;;0.66;100.00
39341;BME280;25059;52.132;21.062;2023-02-10T16:34:37;101989.94;;;0.62;100.00
39341;BME280;25059;52.132;21.062;2023-02-10T16:37:22;101987.38;;;0.62;100.00
39341;BME280;25059;52.132;21.062;2023-02-10T16:40:13;101985.56;;;0.60;100.00
39341;BME280;25059;52.132;21.062;2023-02-10T16:43:01;101992.59;;;0.64;100.00
39341;BME280;25059;52.132;21.062;2023-02-10T16:45:45;101991.91;;;0.71;100.00
39341;BME280;25059;52.132;21.062;2023-02-10T16:48:30;101986.69;;;0.70;100.00
39341;BME280;25059;52.132;21.062;2023-02-10T16:51:15;101981.44;;;0.67;100.00
39341;BME280;25059;52.132;21.062;2023-02-10T16:53:59;101981.34;;;0.63;100.00
39341;BME280;25059;52.132;21.062;2023-02-10T16:56:44;101982.94;;;0.58;100.00
39341;BME280;25059;52.132;21.062;2023-02-10T16:59:29;101981.28;;;0.60;100.00
39341;BME280;25059;52.132;21.062;2023-02-10T17:02:16;101985.47;;;0.57;100.00
39341;BME280;25059;52.132;21.062;2023-02-10T17:05:00;101976.97;;;0.61;100.00
39341;BME280;25059;52.132;21.062;2023-02-10T17:07:45;101976.22;;;0.65;100.00
39341;BME280;25059;52.132;21.062;2023-02-10T17:10:31;101979.81;;;0.70;100.00
39341;BME280;25059;52.132;21.062;2023-02-10T17:13:16;101986.75;;;0.71;100.00
39341;BME280;25059;52.132;21.062;2023-02-10T17:16:00;101974.88;;;0.79;100.00
39341;BME280;25059;52.132;21.062;2023-02-10T17:18:45;101979.22;;;0.80;100.00
39341;BME280;25059;52.132;21.062;2023-02-10T17:21:30;101983.31;;;0.72;100.00
39341;BME280;25059;52.132;21.062;2023-02-10T17:24:15;101978.31;;;0.78;100.00
39341;BME280;25059;52.132;21.062;2023-02-10T17:27:00;101976.56;;;0.77;100.00
39341;BME280;25059;52.132;21.062;2023-02-10T17:29:45;101988.69;;;0.80;100.00
39341;BME280;25059;52.132;21.062;2023-02-10T17:32:29;101980.22;;;0.85;100.00
39341;BME280;25059;52.132;21.062;2023-02-10T17:35:17;101977.63;;;0.85;100.00
39341;BME280;25059;52.132;21.062;2023-02-10T17:38:03;101983.69;;;0.86;100.00
39341;BME280;25059;52.132;21.062;2023-02-10T17:41:08;101980.19;;;0.84;100.00
39341;BME280;25059;52.132;21.062;2023-02-10T17:43:55;101984.41;;;0.80;100.00
39341;BME280;25059;52.132;21.062;2023-02-10T17:46:40;101980.22;;;0.85;100.00
39341;BME280;25059;52.132;21.062;2023-02-10T17:49:31;101986.31;;;0.87;100.00
39341;BME280;25059;52.132;21.062;2023-02-10T17:52:16;101982.94;;;0.90;100.00
39341;BME280;25059;52.132;21.062;2023-02-10T17:55:00;101982.91;;;0.88;100.00
39341;BME280;25059;52.132;21.062;2023-02-10T17:57:45;101973.47;;;0.90;100.00
39341;BME280;25059;52.132;21.062;2023-02-10T18:00:30;101979.81;;;1.02;100.00
39341;BME280;25059;52.132;21.062;2023-02-10T18:03:14;101976.41;;;1.04;100.00
39341;BME280;25059;52.132;21.062;2023-02-10T18:05:59;101978.88;;;1.00;100.00
39341;BME280;25059;52.132;21.062;2023-02-10T18:08:46;101978.88;;;1.00;100.00
39341;BME280;25059;52.132;21.062;2023-02-10T18:11:30;101979.69;;;0.97;100.00
39341;BME280;25059;52.132;21.062;2023-02-10T18:14:15;101967.66;;;0.99;100.00
39341;BME280;25059;52.132;21.062;2023-02-10T18:17:01;101970.25;;;0.99;100.00
39341;BME280;25059;52.132;21.062;2023-02-10T18:19:46;101973.59;;;0.95;100.00
39341;BME280;25059;52.132;21.062;2023-02-10T18:22:30;101977.06;;;0.95;100.00
39341;BME280;25059;52.132;21.062;2023-02-10T18:25:15;101974.53;;;0.99;100.00
39341;BME280;25059;52.132;21.062;2023-02-10T18:28:44;101980.69;;;1.02;100.00
39341;BME280;25059;52.132;21.062;2023-02-10T18:31:29;101981.59;;;1.04;100.00
39341;BME280;25059;52.132;21.062;2023-02-10T18:34:14;101978.84;;;0.98;100.00
39341;BME280;25059;52.132;21.062;2023-02-10T18:36:58;101978.75;;;0.95;100.00
39341;BME280;25059;52.132;21.062;2023-02-10T18:39:44;101967.53;;;0.94;100.00
39341;BME280;25059;52.132;21.062;2023-02-10T18:42:29;101962.44;;;0.98;100.00
39341;BME280;25059;52.132;21.062;2023-02-10T18:45:14;101957.25;;;0.98;100.00
39341;BME280;25059;52.132;21.062;2023-02-10T18:47:58;101959.88;;;0.99;100.00
39341;BME280;25059;52.132;21.062;2023-02-10T18:50:44;101959.13;;;1.03;100.00
39341;BME280;25059;52.132;21.062;2023-02-10T18:53:29;101963.44;;;1.03;100.00
39341;BME280;25059;52.132;21.062;2023-02-10T18:56:21;101953.97;;;1.05;100.00
39341;BME280;25059;52.132;21.062;2023-02-10T18:59:06;101961.00;;;1.09;100.00
39341;BME280;25059;52.132;21.062;2023-02-10T19:01:51;101956.63;;;1.06;100.00
39341;BME280;25059;52.132;21.062;2023-02-10T19:04:36;101955.94;;;1.13;100.00
39341;BME280;25059;52.132;21.062;2023-02-10T19:10:49;101959.44;;;1.15;100.00
39341;BME280;25059;52.132;21.062;2023-02-10T19:13:34;101956.03;;;1.18;100.00
39341;BME280;25059;52.132;21.062;2023-02-10T19:16:19;101940.50;;;1.18;100.00
39341;BME280;25059;52.132;21.062;2023-02-10T19:19:04;101940.38;;;1.13;100.00
39341;BME280;25059;52.132;21.062;2023-02-10T19:21:50;101931.09;;;1.21;100.00
39341;BME280;25059;52.132;21.062;2023-02-10T19:24:35;101928.41;;;1.17;100.00
39341;BME280;25059;52.132;21.062;2023-02-10T19:27:20;101925.81;;;1.17;100.00
39341;BME280;25059;52.132;21.062;2023-02-10T19:30:04;101926.72;;;1.19;100.00
39341;BME280;25059;52.132;21.062;2023-02-10T19:32:50;101931.06;;;1.20;100.00
39341;BME280;25059;52.132;21.062;2023-02-10T19:35:35;101929.38;;;1.22;100.00
39341;BME280;25059;52.132;21.062;2023-02-10T19:38:21;101915.53;;;1.20;100.00
39341;BME280;25059;52.132;21.062;2023-02-10T19:41:09;101914.69;;;1.21;100.00
39341;BME280;25059;52.132;21.062;2023-02-10T19:43:54;101912.84;;;1.17;100.00
39341;BME280;25059;52.132;21.062;2023-02-10T19:46:40;101911.19;;;1.19;100.00
39341;BME280;25059;52.132;21.062;2023-02-10T19:49:25;101913.00;;;1.23;100.00
39341;BME280;25059;52.132;21.062;2023-02-10T19:52:09;101898.25;;;1.20;100.00
39341;BME280;25059;52.132;21.062;2023-02-10T19:54:54;101893.88;;;1.18;100.00
39341;BME280;25059;52.132;21.062;2023-02-10T19:57:38;101899.91;;;1.17;100.00
39341;BME280;25059;52.132;21.062;2023-02-10T20:00:23;101892.28;;;1.23;100.00
39341;BME280;25059;52.132;21.062;2023-02-10T20:03:08;101895.78;;;1.25;100.00
39341;BME280;25059;52.132;21.062;2023-02-10T20:05:52;101908.66;;;1.22;100.00
39341;BME280;25059;52.132;21.062;2023-02-10T20:08:37;101901.00;;;1.26;100.00
39341;BME280;25059;52.132;21.062;2023-02-10T20:11:22;101905.38;;;1.29;100.00
39341;BME280;25059;52.132;21.062;2023-02-10T20:14:07;101893.19;;;1.25;100.00
39341;BME280;25059;52.132;21.062;2023-02-10T20:16:54;101894.84;;;1.21;100.00
39341;BME280;25059;52.132;21.062;2023-02-10T20:19:38;101882.69;;;1.19;100.00
39341;BME280;25059;52.132;21.062;2023-02-10T20:22:23;101891.22;;;1.15;100.00
39341;BME280;25059;52.132;21.062;2023-02-10T20:25:08;101885.09;;;1.11;100.00
39341;BME280;25059;52.132;21.062;2023-02-10T20:27:53;101894.47;;;1.06;100.00
39341;BME280;25059;52.132;21.062;2023-02-10T20:30:37;101893.34;;;0.96;100.00
39341;BME280;25059;52.132;21.062;2023-02-10T20:33:22;101899.28;;;0.92;100.00
39341;BME280;25059;52.132;21.062;2023-02-10T20:36:06;101893.25;;;0.92;100.00
39341;BME280;25059;52.132;21.062;2023-02-10T20:38:54;101899.50;;;1.00;100.00
39341;BME280;25059;52.132;21.062;2023-02-10T20:41:39;101892.91;;;1.13;100.00
39341;BME280;25059;52.132;21.062;2023-02-10T20:44:23;101893.66;;;1.09;100.00
39341;BME280;25059;52.132;21.062;2023-02-10T20:47:08;101893.09;;;1.20;100.00
39341;BME280;25059;52.132;21.062;2023-02-10T20:49:52;101891.41;;;1.22;100.00
39341;BME280;25059;52.132;21.062;2023-02-10T20:52:37;101890.53;;;1.22;100.00
39341;BME280;25059;52.132;21.062;2023-02-10T20:55:23;101880.31;;;1.28;100.00
39341;BME280;25059;52.132;21.062;2023-02-10T20:58:08;101867.47;;;1.33;100.00
39341;BME280;25059;52.132;21.062;2023-02-10T21:01:02;101860.50;;;1.30;100.00
39341;BME280;25059;52.132;21.062;2023-02-10T21:03:47;101864.09;;;1.37;100.00
39341;BME280;25059;52.132;21.062;2023-02-10T21:06:32;101866.66;;;1.35;100.00
39341;BME280;25059;52.132;21.062;2023-02-10T21:09:16;101865.03;;;1.39;100.00
39341;BME280;25059;52.132;21.062;2023-02-10T21:12:01;101857.50;;;1.49;100.00
39341;BME280;25059;52.132;21.062;2023-02-10T21:14:46;101863.50;;;1.48;100.00
39341;BME280;25059;52.132;21.062;2023-02-10T21:17:31;101866.97;;;1.49;100.00
39341;BME280;25059;52.132;21.062;2023-02-10T21:20:16;101860.13;;;1.51;100.00
39341;BME280;25059;52.132;21.062;2023-02-10T21:23:00;101862.81;;;1.55;100.00
39341;BME280;25059;52.132;21.062;2023-02-10T21:25:45;101864.63;;;1.59;100.00
39341;BME280;25059;52.132;21.062;2023-02-10T21:28:30;101859.41;;;1.58;100.00
39341;BME280;25059;52.132;21.062;2023-02-10T21:31:17;101870.69;;;1.60;100.00
39341;BME280;25059;52.132;21.062;2023-02-10T21:34:04;101852.59;;;1.63;100.00
39341;BME280;25059;52.132;21.062;2023-02-10T21:36:48;101858.66;;;1.64;100.00
39341;BME280;25059;52.132;21.062;2023-02-10T21:39:34;101844.88;;;1.65;100.00
39341;BME280;25059;52.132;21.062;2023-02-10T21:42:18;101852.72;;;1.68;100.00
39341;BME280;25059;52.132;21.062;2023-02-10T21:45:03;101852.00;;;1.75;100.00
39341;BME280;25059;52.132;21.062;2023-02-10T21:47:47;101845.03;;;1.72;100.00
39341;BME280;25059;52.132;21.062;2023-02-10T21:50:32;101846.69;;;1.69;100.00
39341;BME280;25059;52.132;21.062;2023-02-10T21:53:17;101853.66;;;1.71;100.00
39341;BME280;25059;52.132;21.062;2023-02-10T21:56:03;101847.66;;;1.74;100.00
39341;BME280;25059;52.132;21.062;2023-02-10T21:58:48;101849.38;;;1.73;100.00
39341;BME280;25059;52.132;21.062;2023-02-10T22:01:33;101843.31;;;1.73;100.00
39341;BME280;25059;52.132;21.062;2023-02-10T22:04:18;101846.75;;;1.72;100.00
39341;BME280;25059;52.132;21.062;2023-02-10T22:07:02;101841.59;;;1.73;100.00
39341;BME280;25059;52.132;21.062;2023-02-10T22:09:47;101839.91;;;1.75;100.00
39341;BME280;25059;52.132;21.062;2023-02-10T22:12:31;101837.31;;;1.75;100.00
39341;BME280;25059;52.132;21.062;2023-02-10T22:15:16;101825.25;;;1.77;100.00
39341;BME280;25059;52.132;21.062;2023-02-10T22:18:01;101820.88;;;1.75;100.00
39341;BME280;25059;52.132;21.062;2023-02-10T22:20:45;101816.66;;;1.80;100.00
39341;BME280;25059;52.132;21.062;2023-02-10T22:23:30;101810.56;;;1.76;100.00
39341;BME280;25059;52.132;21.062;2023-02-10T22:26:16;101812.31;;;1.79;100.00
39341;BME280;25059;52.132;21.062;2023-02-10T22:29:02;101811.47;;;1.80;100.00
39341;BME280;25059;52.132;21.062;2023-02-10T22:31:46;101796.75;;;1.77;100.00
39341;BME280;25059;52.132;21.062;2023-02-10T22:34:34;101800.97;;;1.72;100.00
39341;BME280;25059;52.132;21.062;2023-02-10T22:37:18;101796.66;;;1.73;100.00
39341;BME280;25059;52.132;21.062;2023-02-10T22:40:03;101789.81;;;1.76;100.00
39341;BME280;25059;52.132;21.062;2023-02-10T22:42:48;101795.81;;;1.74;100.00
39341;BME280;25059;52.132;21.062;2023-02-10T22:45:33;101775.84;;;1.70;100.00
39341;BME280;25059;52.132;21.062;2023-02-10T22:48:18;101782.81;;;1.72;100.00
39341;BME280;25059;52.132;21.062;2023-02-10T22:51:08;101773.22;;;1.68;100.00
39341;BME280;25059;52.132;21.062;2023-02-10T22:53:55;101774.13;;;1.70;100.00
39341;BME280;25059;52.132;21.062;2023-02-10T22:56:40;101797.38;;;1.66;100.00
39341;BME280;25059;52.132;21.062;2023-02-10T22:59:25;101781.91;;;1.70;100.00
39341;BME280;25059;52.132;21.062;2023-02-10T23:02:10;101773.16;;;1.65;100.00
39341;BME280;25059;52.132;21.062;2023-02-10T23:04:54;101766.34;;;1.70;100.00
39341;BME280;25059;52.132;21.062;2023-02-10T23:07:39;101757.66;;;1.67;100.00
39341;BME280;25059;52.132;21.062;2023-02-10T23:10:24;101761.03;;;1.63;100.00
39341;BME280;25059;52.132;21.062;2023-02-10T23:13:08;101754.84;;;1.56;100.00
39341;BME280;25059;52.132;21.062;2023-02-10T23:15:54;101752.28;;;1.57;100.00
39341;BME280;25059;52.132;21.062;2023-02-10T23:18:39;101745.41;;;1.59;100.00
39341;BME280;25059;52.132;21.062;2023-02-10T23:21:25;101732.34;;;1.55;100.00
39341;BME280;25059;52.132;21.062;2023-02-10T23:24:10;101740.16;;;1.56;100.00
39341;BME280;25059;52.132;21.062;2023-02-10T23:26:55;101737.50;;;1.53;100.00
39341;BME280;25059;52.132;21.062;2023-02-10T23:29:40;101734.06;;;1.54;100.00
39341;BME280;25059;52.132;21.062;2023-02-10T23:32:25;101728.84;;;1.51;100.00
39341;BME280;25059;52.132;21.062;2023-02-10T23:35:09;101727.06;;;1.49;100.00
39341;BME280;25059;52.132;21.062;2023-02-10T23:37:54;101721.84;;;1.47;100.00
39341;BME280;25059;52.132;21.062;2023-02-10T23:40:39;101726.88;;;1.40;100.00
39341;BME280;25059;52.132;21.062;2023-02-10T23:43:23;101716.63;;;1.46;100.00
39341;BME280;25059;52.132;21.062;2023-02-10T23:46:08;101712.16;;;1.39;100.00
39341;BME280;25059;52.132;21.062;2023-02-10T23:48:53;101711.25;;;1.37;100.00
39341;BME280;25059;52.132;21.062;2023-02-10T23:51:37;101708.75;;;1.41;100.00
39341;BME280;25059;52.132;21.062;2023-02-10T23:54:21;101705.25;;;1.39;100.00
39341;BME280;25059;52.132;21.062;2023-02-10T23:57:06;101693.25;;;1.43;100.00
39341;BME280;25059;52.132;21.062;2023-02-10T23:59:51;101695.84;;;1.43;100.00
